Time;durP1;ratioP1;P1;durP2;ratioP2;P2;SDS_P1;SDS_P2;PMS_P1;PMS_P2;Temp;Humidity;BMP_temperature;BMP_pressure;BME280_temperature;BME280_humidity;BME280_pressure;Samples;Min_cycle;Max_cycle;Signal;HPM_P1;HPM_P2
2024/01/16 00:01:14;;;;;;;2.77;1.67;;;;;;;;;;4963446;28;20211;-84
2024/01/16 00:03:40;;;;;;;4.30;2.27;;;;;;;;;;4947549;28;20226;-87
2024/01/16 00:06:10;;;;;;;2.77;2.10;;;;;;;;;;4962371;28;20236;-86
2024/01/16 00:08:41;;;;;;;2.73;2.30;;;;;;;;;;4965543;28;20225;-85
2024/01/16 00:11:09;;;;;;;2.67;2.20;;;;;;;;;;4963253;28;20218;-86
2024/01/16 00:13:34;;;;;;;3.87;2.43;;;;;;;;;;4979244;28;20784;-86
2024/01/16 00:16:03;;;;;;;2.57;1.97;;;;;;;;;;4952256;28;20229;-86
2024/01/16 00:18:29;;;;;;;2.97;2.63;;;;;;;;;;4937192;28;20222;-87
2024/01/16 00:20:55;;;;;;;2.47;2.27;;;;;;;;;;4955973;28;20829;-85
2024/01/16 00:23:39;;;;;;;3.27;2.63;;;;;;;;;;4942856;28;20272;-87
2024/01/16 00:26:04;;;;;;;3.57;2.03;;;;;;;;;;4958468;28;20225;-86
2024/01/16 00:28:32;;;;;;;2.77;2.53;;;;;;;;;;4978442;28;20237;-86
2024/01/16 00:30:58;;;;;;;3.17;2.13;;;;;;;;;;4967070;28;20219;-86
2024/01/16 00:33:27;;;;;;;2.50;2.30;;;;;;;;;;4975348;28;20272;-86
2024/01/16 00:35:57;;;;;;;2.30;2.10;;;;;;;;;;4962324;28;20304;-86
2024/01/16 00:38:23;;;;;;;2.80;2.47;;;;;;;;;;4944547;28;20285;-86
2024/01/16 00:40:51;;;;;;;2.50;2.30;;;;;;;;;;4972762;28;20585;-86
2024/01/16 00:43:20;;;;;;;2.40;2.20;;;;;;;;;;4934859;28;20358;-85
2024/01/16 00:45:48;;;;;;;3.30;2.30;;;;;;;;;;4945316;28;20245;-85
2024/01/16 00:48:16;;;;;;;2.67;2.40;;;;;;;;;;4964975;28;20253;-84
2024/01/16 00:50:41;;;;;;;2.57;2.37;;;;;;;;;;4947597;28;20222;-85
2024/01/16 00:53:12;;;;;;;6.40;2.47;;;;;;;;;;4975692;28;20258;-85
2024/01/16 00:55:37;;;;;;;2.80;2.50;;;;;;;;;;4962902;28;20254;-83
2024/01/16 00:58:03;;;;;;;2.83;2.60;;;;;;;;;;4952390;28;20234;-85
2024/01/16 01:00:30;;;;;;;2.93;2.63;;;;;;;;;;4972357;28;20249;-86
2024/01/16 01:02:57;;;;;;;2.93;2.60;;;;;;;;;;4966751;28;20297;-85
2024/01/16 01:05:28;;;;;;;2.43;2.27;;;;;;;;;;4943035;28;20219;-87
2024/01/16 01:07:56;;;;;;;7.87;2.63;;;;;;;;;;4958919;28;20223;-84
2024/01/16 01:10:26;;;;;;;3.13;2.40;;;;;;;;;;4959485;28;20264;-85
2024/01/16 01:12:53;;;;;;;3.50;2.90;;;;;;;;;;4981566;28;20236;-84
2024/01/16 01:15:23;;;;;;;4.00;3.10;;;;;;;;;;4973792;28;20266;-84
2024/01/16 01:17:51;;;;;;;4.30;2.73;;;;;;;;;;4964567;28;20230;-87
2024/01/16 01:20:17;;;;;;;3.43;3.13;;;;;;;;;;4942767;28;20218;-86
2024/01/16 01:22:44;;;;;;;5.53;3.27;;;;;;;;;;4959516;28;20248;-86
2024/01/16 01:25:12;;;;;;;4.10;3.27;;;;;;;;;;4952341;28;20596;-86
2024/01/16 01:27:38;;;;;;;4.17;3.27;;;;;;;;;;4956044;28;20596;-85
2024/01/16 01:30:05;;;;;;;3.23;2.90;;;;;;;;;;4968279;28;20214;-86
2024/01/16 01:32:30;;;;;;;4.17;3.27;;;;;;;;;;4959297;28;20661;-85
2024/01/16 01:34:56;;;;;;;3.63;3.33;;;;;;;;;;4926772;28;20297;-86
2024/01/16 01:37:21;;;;;;;3.23;2.93;;;;;;;;;;4950798;28;20226;-85
2024/01/16 01:39:47;;;;;;;5.97;3.50;;;;;;;;;;4963648;28;20231;-85
2024/01/16 01:42:15;;;;;;;5.70;3.60;;;;;;;;;;4943773;28;20585;-85
2024/01/16 01:44:41;;;;;;;3.67;3.30;;;;;;;;;;4943838;28;20229;-85
2024/01/16 01:47:09;;;;;;;3.63;3.33;;;;;;;;;;4958519;28;20372;-85
2024/01/16 01:49:34;;;;;;;3.77;3.47;;;;;;;;;;4958889;28;20230;-86
2024/01/16 01:52:00;;;;;;;3.77;3.50;;;;;;;;;;4975277;28;20230;-86
2024/01/16 01:54:25;;;;;;;5.40;3.77;;;;;;;;;;4964155;28;20224;-86
2024/01/16 01:56:53;;;;;;;4.17;3.53;;;;;;;;;;4963357;28;20231;-85
2024/01/16 01:59:19;;;;;;;5.40;3.90;;;;;;;;;;4939635;28;20582;-87
2024/01/16 02:01:45;;;;;;;3.73;3.43;;;;;;;;;;4993152;28;20229;-86
2024/01/16 02:04:12;;;;;;;5.33;3.80;;;;;;;;;;4985754;28;20230;-88
2024/01/16 02:06:38;;;;;;;5.53;3.90;;;;;;;;;;4958047;28;20230;-86
2024/01/16 02:09:06;;;;;;;5.17;3.57;;;;;;;;;;4957577;28;20687;-86
2024/01/16 02:11:37;;;;;;;3.93;3.53;;;;;;;;;;4964806;28;20238;-86
2024/01/16 02:14:02;;;;;;;4.00;3.60;;;;;;;;;;4965214;28;20281;-88
2024/01/16 02:16:40;;;;;;;3.67;3.10;;;;;;;;;;4960878;28;20222;-87
2024/01/16 02:19:06;;;;;;;3.37;3.07;;;;;;;;;;4961031;28;20227;-86
2024/01/16 02:21:41;;;;;;;3.67;3.37;;;;;;;;;;4950466;28;20306;-85
2024/01/16 02:24:07;;;;;;;3.83;3.40;;;;;;;;;;4961836;28;20225;-86
2024/01/16 02:26:35;;;;;;;4.27;3.87;;;;;;;;;;4936191;28;20640;-86
2024/01/16 02:29:02;;;;;;;4.63;3.70;;;;;;;;;;4926575;28;20481;-86
2024/01/16 02:31:27;;;;;;;4.27;3.47;;;;;;;;;;4953141;28;20227;-84
2024/01/16 02:33:53;;;;;;;3.87;3.20;;;;;;;;;;4950421;28;20214;-85
2024/01/16 02:36:23;;;;;;;4.60;3.70;;;;;;;;;;4957579;28;20660;-85
2024/01/16 02:38:51;;;;;;;5.27;3.40;;;;;;;;;;4957088;28;20233;-86
2024/01/16 02:41:17;;;;;;;4.80;3.70;;;;;;;;;;4976382;28;20223;-87
2024/01/16 02:43:45;;;;;;;5.43;3.83;;;;;;;;;;4974426;28;20483;-87
2024/01/16 02:46:11;;;;;;;4.13;3.73;;;;;;;;;;4920840;28;20287;-87
2024/01/16 02:48:39;;;;;;;5.90;3.90;;;;;;;;;;4967823;28;20688;-85
2024/01/16 02:51:08;;;;;;;4.10;3.37;;;;;;;;;;4965595;28;20213;-83
2024/01/16 02:53:36;;;;;;;4.17;3.80;;;;;;;;;;4950016;28;20325;-84
2024/01/16 02:56:04;;;;;;;4.43;4.10;;;;;;;;;;4984424;28;20244;-85
2024/01/16 02:58:30;;;;;;;4.70;4.30;;;;;;;;;;4927861;28;20322;-84
2024/01/16 03:01:04;;;;;;;5.47;4.40;;;;;;;;;;4945955;28;20285;-86
2024/01/16 03:03:29;;;;;;;4.60;4.10;;;;;;;;;;4943069;28;20313;-85
2024/01/16 03:05:55;;;;;;;6.30;4.77;;;;;;;;;;4956959;28;20230;-84
2024/01/16 03:08:21;;;;;;;5.70;5.20;;;;;;;;;;4970102;28;20223;-84
2024/01/16 03:10:49;;;;;;;5.47;4.97;;;;;;;;;;4972318;28;20228;-84
2024/01/16 03:13:17;;;;;;;5.87;5.30;;;;;;;;;;4958234;28;20600;-85
2024/01/16 03:15:43;;;;;;;5.70;5.20;;;;;;;;;;4948244;28;20218;-84
2024/01/16 03:18:11;;;;;;;5.90;5.37;;;;;;;;;;4942724;28;20234;-86
2024/01/16 03:20:39;;;;;;;6.07;5.57;;;;;;;;;;4975802;28;20229;-84
2024/01/16 03:23:10;;;;;;;6.77;6.17;;;;;;;;;;4951554;28;20280;-86
2024/01/16 03:25:38;;;;;;;7.27;6.30;;;;;;;;;;4966301;28;20229;-85
2024/01/16 03:28:10;;;;;;;6.60;6.00;;;;;;;;;;4979448;28;20249;-84
2024/01/16 03:30:35;;;;;;;7.90;7.10;;;;;;;;;;4978672;28;20222;-85
2024/01/16 03:33:04;;;;;;;6.33;5.83;;;;;;;;;;4955117;28;20258;-86
2024/01/16 03:35:32;;;;;;;6.33;5.73;;;;;;;;;;4951769;28;20327;-83
2024/01/16 03:38:00;;;;;;;6.53;4.97;;;;;;;;;;4953191;28;20218;-83
2024/01/16 03:40:33;;;;;;;5.10;4.70;;;;;;;;;;4974412;28;20665;-88
2024/01/16 03:43:02;;;;;;;4.80;4.40;;;;;;;;;;4960071;28;20225;-83
2024/01/16 03:45:27;;;;;;;8.10;5.00;;;;;;;;;;4959113;28;20823;-85
2024/01/16 03:47:53;;;;;;;3.97;2.93;;;;;;;;;;4960983;28;20281;-84
2024/01/16 03:50:23;;;;;;;3.03;2.67;;;;;;;;;;4945855;28;20226;-85
2024/01/16 03:52:52;;;;;;;3.63;2.20;;;;;;;;;;4966284;28;20253;-84
2024/01/16 03:55:20;;;;;;;3.17;2.10;;;;;;;;;;4975554;28;20230;-84
2024/01/16 03:57:48;;;;;;;1.77;1.47;;;;;;;;;;4956233;28;20974;-85
2024/01/16 04:04:01;;;;;;;2.00;1.80;;;;;;;;;;4983707;28;20233;-86
2024/01/16 04:06:31;;;;;;;2.33;1.93;;;;;;;;;;4991863;28;20257;-88
2024/01/16 04:09:01;;;;;;;2.73;1.80;;;;;;;;;;4969483;28;20223;-85
2024/01/16 04:11:29;;;;;;;2.23;1.90;;;;;;;;;;4945299;28;20645;-86
2024/01/16 04:13:55;;;;;;;2.30;1.83;;;;;;;;;;4955809;28;20232;-86
2024/01/16 04:16:25;;;;;;;3.37;2.10;;;;;;;;;;4961871;28;21800;-86
2024/01/16 04:18:55;;;;;;;2.30;2.10;;;;;;;;;;4968653;28;20313;-86
2024/01/16 04:21:20;;;;;;;2.93;2.67;;;;;;;;;;4981430;28;20210;-85
2024/01/16 04:23:46;;;;;;;3.67;3.37;;;;;;;;;;4958110;28;20773;-87
2024/01/16 04:26:14;;;;;;;3.40;3.10;;;;;;;;;;4971621;28;20223;-84
2024/01/16 04:28:40;;;;;;;2.87;2.60;;;;;;;;;;4929902;28;20631;-86
2024/01/16 04:31:06;;;;;;;3.27;2.97;;;;;;;;;;4994027;28;20240;-84
2024/01/16 04:33:34;;;;;;;4.40;3.10;;;;;;;;;;4961898;28;20258;-85
2024/01/16 04:36:02;;;;;;;3.23;2.93;;;;;;;;;;4971891;28;20309;-86
2024/01/16 04:38:32;;;;;;;4.47;3.70;;;;;;;;;;4951847;29;20253;-85
2024/01/16 04:41:02;;;;;;;4.67;3.80;;;;;;;;;;4960467;28;20371;-85
2024/01/16 04:43:30;;;;;;;6.67;4.17;;;;;;;;;;4951731;28;20297;-84
2024/01/16 04:45:55;;;;;;;4.80;4.30;;;;;;;;;;4952690;28;20226;-85
2024/01/16 04:48:25;;;;;;;4.83;4.37;;;;;;;;;;4936411;28;20686;-83
2024/01/16 04:50:56;;;;;;;4.83;4.27;;;;;;;;;;4957884;28;20674;-85
2024/01/16 04:53:25;;;;;;;4.47;4.07;;;;;;;;;;4961034;28;20276;-84
2024/01/16 04:55:51;;;;;;;4.90;4.47;;;;;;;;;;4960451;28;20596;-84
2024/01/16 04:58:19;;;;;;;7.10;4.60;;;;;;;;;;4974474;28;20234;-84
2024/01/16 05:00:45;;;;;;;5.07;4.37;;;;;;;;;;4979177;28;20808;-86
2024/01/16 05:03:11;;;;;;;4.37;3.97;;;;;;;;;;4952053;28;20739;-78
2024/01/16 05:05:36;;;;;;;5.87;4.70;;;;;;;;;;4968123;28;20236;-78
2024/01/16 05:08:05;;;;;;;5.77;4.60;;;;;;;;;;4953684;28;20221;-77
2024/01/16 05:10:33;;;;;;;4.17;3.70;;;;;;;;;;4970269;28;20237;-77
2024/01/16 05:13:00;;;;;;;5.77;4.20;;;;;;;;;;4940777;28;20242;-77
2024/01/16 05:15:28;;;;;;;6.53;4.00;;;;;;;;;;4968080;28;20218;-77
2024/01/16 05:17:59;;;;;;;4.57;4.03;;;;;;;;;;4930566;28;20223;-77
2024/01/16 05:20:24;;;;;;;4.10;3.67;;;;;;;;;;4955566;28;20225;-77
2024/01/16 05:22:50;;;;;;;4.53;3.87;;;;;;;;;;4954140;28;20234;-78
2024/01/16 05:25:19;;;;;;;4.20;3.50;;;;;;;;;;4958379;28;20301;-79
2024/01/16 05:27:49;;;;;;;7.77;3.80;;;;;;;;;;4972072;28;20812;-78
2024/01/16 05:30:17;;;;;;;3.93;3.47;;;;;;;;;;4965027;28;20214;-79
2024/01/16 05:32:45;;;;;;;5.80;3.80;;;;;;;;;;4973704;28;20625;-77
2024/01/16 05:35:13;;;;;;;8.77;3.57;;;;;;;;;;4964193;28;20218;-78
2024/01/16 05:37:38;;;;;;;5.77;2.93;;;;;;;;;;4955454;28;20236;-78
2024/01/16 05:40:05;;;;;;;5.57;2.90;;;;;;;;;;4952943;28;20610;-78
2024/01/16 05:42:31;;;;;;;6.90;3.30;;;;;;;;;;4971698;28;20217;-77
2024/01/16 05:44:58;;;;;;;3.10;2.30;;;;;;;;;;4972165;28;20222;-79
2024/01/16 05:47:27;;;;;;;3.10;2.70;;;;;;;;;;4971447;28;20229;-77
2024/01/16 05:49:56;;;;;;;5.40;3.30;;;;;;;;;;4980492;28;20214;-78
2024/01/16 05:52:21;;;;;;;6.73;3.07;;;;;;;;;;4970589;28;20232;-77
2024/01/16 05:54:49;;;;;;;4.87;3.43;;;;;;;;;;4971009;28;20222;-78
2024/01/16 05:57:17;;;;;;;6.97;3.80;;;;;;;;;;4968366;28;20256;-78
2024/01/16 05:59:44;;;;;;;5.03;3.13;;;;;;;;;;4972140;28;20494;-78
2024/01/16 06:02:10;;;;;;;5.80;2.90;;;;;;;;;;4949958;28;20250;-78
2024/01/16 06:04:36;;;;;;;4.83;2.80;;;;;;;;;;4955311;28;20643;-78
2024/01/16 06:07:06;;;;;;;8.17;2.83;;;;;;;;;;4970626;28;20238;-78
2024/01/16 06:09:34;;;;;;;8.43;2.80;;;;;;;;;;4965770;28;20237;-77
2024/01/16 06:11:59;;;;;;;3.27;2.13;;;;;;;;;;4959392;28;20246;-78
2024/01/16 06:14:29;;;;;;;4.73;2.47;;;;;;;;;;4974741;28;20225;-78
2024/01/16 06:16:57;;;;;;;6.93;2.10;;;;;;;;;;4953290;28;20438;-78
2024/01/16 06:19:23;;;;;;;6.37;2.27;;;;;;;;;;4970956;28;20266;-78
2024/01/16 06:21:53;;;;;;;4.83;2.30;;;;;;;;;;4984487;28;20209;-78
2024/01/16 06:24:26;;;;;;;8.93;2.40;;;;;;;;;;4952978;28;20760;-77
2024/01/16 06:26:51;;;;;;;5.03;2.47;;;;;;;;;;4954842;28;20283;-77
2024/01/16 06:29:21;;;;;;;5.10;2.03;;;;;;;;;;4952113;28;20222;-78
2024/01/16 06:31:46;;;;;;;6.80;2.80;;;;;;;;;;4986317;28;20292;-78
2024/01/16 06:34:16;;;;;;;7.50;2.70;;;;;;;;;;4987305;28;20226;-77
2024/01/16 06:36:44;;;;;;;6.17;2.47;;;;;;;;;;4930659;28;20652;-78
2024/01/16 06:39:15;;;;;;;4.77;2.70;;;;;;;;;;4949952;28;20218;-77
2024/01/16 06:41:41;;;;;;;6.27;2.80;;;;;;;;;;4945014;28;20222;-77
2024/01/16 06:44:06;;;;;;;3.93;2.33;;;;;;;;;;4986339;28;20226;-77
2024/01/16 06:46:32;;;;;;;5.60;2.50;;;;;;;;;;4969760;28;21138;-77
2024/01/16 06:49:02;;;;;;;6.67;2.37;;;;;;;;;;4985158;28;20242;-78
2024/01/16 06:51:28;;;;;;;6.27;2.47;;;;;;;;;;4938182;28;20246;-78
2024/01/16 06:53:57;;;;;;;6.87;2.50;;;;;;;;;;4969296;28;20814;-77
2024/01/16 06:56:24;;;;;;;9.90;3.57;;;;;;;;;;4955431;28;20241;-77
2024/01/16 06:58:52;;;;;;;5.43;2.47;;;;;;;;;;4987447;28;20284;-77
2024/01/16 07:01:18;;;;;;;6.93;2.97;;;;;;;;;;4964733;28;20246;-76
2024/01/16 07:03:43;;;;;;;7.73;2.60;;;;;;;;;;4972292;28;20230;-77
2024/01/16 07:06:13;;;;;;;6.80;2.37;;;;;;;;;;4962033;28;20304;-78
2024/01/16 07:08:44;;;;;;;4.57;2.13;;;;;;;;;;4970445;28;20230;-78
2024/01/16 07:11:13;;;;;;;4.53;2.00;;;;;;;;;;4954988;28;20225;-79
2024/01/16 07:13:38;;;;;;;8.50;2.70;;;;;;;;;;4970086;28;20257;-78
2024/01/16 07:16:06;;;;;;;4.60;2.33;;;;;;;;;;4961758;28;20222;-78
2024/01/16 07:18:34;;;;;;;7.60;2.73;;;;;;;;;;4985382;28;20234;-79
2024/01/16 07:21:00;;;;;;;5.20;3.00;;;;;;;;;;4988352;28;20349;-78
2024/01/16 07:23:27;;;;;;;5.73;2.73;;;;;;;;;;4943974;28;20760;-77
2024/01/16 07:25:53;;;;;;;7.67;3.87;;;;;;;;;;4954839;28;20234;-77
2024/01/16 07:28:19;;;;;;;9.97;3.83;;;;;;;;;;4968802;28;20758;-78
2024/01/16 07:30:44;;;;;;;8.93;3.70;;;;;;;;;;4959831;28;20226;-78
2024/01/16 07:33:13;;;;;;;10.63;5.47;;;;;;;;;;4964544;28;20233;-77
2024/01/16 07:35:41;;;;;;;7.27;5.60;;;;;;;;;;4951469;28;20230;-77
2024/01/16 07:38:07;;;;;;;9.60;4.40;;;;;;;;;;4968984;28;20304;-77
2024/01/16 07:40:32;;;;;;;8.73;5.00;;;;;;;;;;4967424;28;20221;-77
2024/01/16 07:42:58;;;;;;;10.33;5.10;;;;;;;;;;4950627;28;20657;-78
2024/01/16 07:45:25;;;;;;;7.00;5.00;;;;;;;;;;4951631;28;20233;-78
2024/01/16 07:47:53;;;;;;;6.57;4.77;;;;;;;;;;4952581;28;20288;-78
2024/01/16 07:50:21;;;;;;;8.50;4.43;;;;;;;;;;4958141;28;20218;-78
2024/01/16 07:52:49;;;;;;;8.77;5.77;;;;;;;;;;4980865;28;20667;-79
2024/01/16 07:55:15;;;;;;;10.60;5.63;;;;;;;;;;4953280;28;20338;-78
2024/01/16 07:57:40;;;;;;;11.53;6.97;;;;;;;;;;4969953;28;20333;-78
2024/01/16 08:00:11;;;;;;;7.90;5.23;;;;;;;;;;4967306;28;20691;-78
2024/01/16 08:02:39;;;;;;;9.10;5.07;;;;;;;;;;4982783;28;20222;-78
2024/01/16 08:05:05;;;;;;;12.03;6.33;;;;;;;;;;4950892;28;20260;-79
2024/01/16 08:07:31;;;;;;;7.30;4.97;;;;;;;;;;4952219;28;20230;-79
2024/01/16 08:09:56;;;;;;;12.07;5.90;;;;;;;;;;4969080;28;20233;-77
2024/01/16 08:12:22;;;;;;;9.43;5.17;;;;;;;;;;4944348;28;20226;-78
2024/01/16 08:14:47;;;;;;;7.17;4.97;;;;;;;;;;4953002;28;20233;-78
2024/01/16 08:17:17;;;;;;;13.17;5.47;;;;;;;;;;4968296;28;20222;-78
2024/01/16 08:19:45;;;;;;;9.47;6.07;;;;;;;;;;4951759;28;20280;-78
2024/01/16 08:22:10;;;;;;;8.03;5.57;;;;;;;;;;4985653;28;20619;-78
2024/01/16 08:24:38;;;;;;;11.37;7.53;;;;;;;;;;4969261;28;20226;-78
2024/01/16 08:27:06;;;;;;;28.00;17.10;;;;;;;;;;4948890;28;20233;-77
2024/01/16 08:29:34;;;;;;;9.87;6.40;;;;;;;;;;4962098;28;20227;-78
2024/01/16 08:31:59;;;;;;;11.10;7.30;;;;;;;;;;4953949;28;20292;-78
2024/01/16 08:34:25;;;;;;;7.07;4.73;;;;;;;;;;4943302;28;20230;-77
2024/01/16 08:36:56;;;;;;;7.57;4.67;;;;;;;;;;4959090;28;20246;-76
2024/01/16 08:39:23;;;;;;;6.30;4.90;;;;;;;;;;4983373;28;20312;-77
2024/01/16 08:41:51;;;;;;;13.10;5.10;;;;;;;;;;4966576;28;20214;-77
2024/01/16 08:44:19;;;;;;;6.27;4.77;;;;;;;;;;4925488;28;20248;-78
2024/01/16 08:46:49;;;;;;;8.83;5.60;;;;;;;;;;4953014;28;20229;-77
2024/01/16 08:49:19;;;;;;;7.30;4.10;;;;;;;;;;4970865;28;20643;-78
2024/01/16 08:51:45;;;;;;;5.63;4.97;;;;;;;;;;4953669;28;20331;-77
2024/01/16 08:54:10;;;;;;;8.23;4.67;;;;;;;;;;4956699;28;20230;-77
2024/01/16 08:56:36;;;;;;;8.27;4.87;;;;;;;;;;4969712;28;20230;-77
2024/01/16 08:59:04;;;;;;;8.73;4.50;;;;;;;;;;4971804;28;20669;-77
2024/01/16 09:01:32;;;;;;;9.93;4.97;;;;;;;;;;4970717;28;20218;-78
2024/01/16 09:04:00;;;;;;;8.00;4.90;;;;;;;;;;4973454;28;20361;-77
2024/01/16 09:06:30;;;;;;;9.17;4.83;;;;;;;;;;4962927;28;20229;-78
2024/01/16 09:08:55;;;;;;;6.30;4.57;;;;;;;;;;4986577;28;20245;-77
2024/01/16 09:11:24;;;;;;;11.30;5.20;;;;;;;;;;4970168;28;20652;-79
2024/01/16 09:13:52;;;;;;;7.37;5.17;;;;;;;;;;4948967;28;20238;-78
2024/01/16 09:16:19;;;;;;;6.13;4.27;;;;;;;;;;4971142;28;20241;-78
2024/01/16 09:18:47;;;;;;;11.20;5.70;;;;;;;;;;4970742;28;20226;-78
2024/01/16 09:21:14;;;;;;;7.90;4.23;;;;;;;;;;4972286;28;20217;-78
2024/01/16 09:23:39;;;;;;;8.27;4.87;;;;;;;;;;4954212;28;20318;-78
2024/01/16 09:26:05;;;;;;;6.97;4.50;;;;;;;;;;4975130;28;20222;-78
2024/01/16 09:28:30;;;;;;;5.77;4.73;;;;;;;;;;4960553;28;20582;-77
2024/01/16 09:30:58;;;;;;;6.53;5.73;;;;;;;;;;4975889;28;20213;-77
2024/01/16 09:33:25;;;;;;;9.60;5.23;;;;;;;;;;4938347;28;20233;-78
2024/01/16 09:35:55;;;;;;;5.83;4.03;;;;;;;;;;4971386;28;20585;-77
2024/01/16 09:38:21;;;;;;;8.23;4.70;;;;;;;;;;4969691;28;20683;-77
2024/01/16 09:40:50;;;;;;;6.07;4.27;;;;;;;;;;4991122;28;20218;-78
2024/01/16 09:43:16;;;;;;;8.27;4.77;;;;;;;;;;4969922;28;20229;-77
2024/01/16 09:45:44;;;;;;;7.00;4.30;;;;;;;;;;4948190;28;20233;-79
2024/01/16 09:48:11;;;;;;;8.20;5.80;;;;;;;;;;4972853;28;20233;-77
2024/01/16 09:50:37;;;;;;;11.50;5.50;;;;;;;;;;4944259;28;20222;-77
2024/01/16 09:53:05;;;;;;;7.43;5.50;;;;;;;;;;4976558;28;20234;-78
2024/01/16 09:55:30;;;;;;;9.77;5.27;;;;;;;;;;4937709;28;20308;-77
2024/01/16 09:57:56;;;;;;;7.33;4.50;;;;;;;;;;4953446;28;20226;-77
2024/01/16 10:00:22;;;;;;;9.63;5.00;;;;;;;;;;4952837;28;20218;-78
2024/01/16 10:02:47;;;;;;;8.70;4.33;;;;;;;;;;4954803;28;20234;-79
2024/01/16 10:05:18;;;;;;;7.67;4.03;;;;;;;;;;4956276;28;20222;-78
2024/01/16 10:07:44;;;;;;;7.33;4.17;;;;;;;;;;4970330;28;20230;-78
2024/01/16 10:10:12;;;;;;;7.17;4.10;;;;;;;;;;4955713;28;20312;-77
2024/01/16 10:12:40;;;;;;;8.27;3.87;;;;;;;;;;4971903;28;20234;-78
2024/01/16 10:15:09;;;;;;;8.27;3.87;;;;;;;;;;4930390;28;20230;-78
2024/01/16 10:17:39;;;;;;;6.70;4.23;;;;;;;;;;4947624;28;20242;-77
2024/01/16 10:20:07;;;;;;;6.27;3.63;;;;;;;;;;4970572;28;20730;-77
2024/01/16 10:22:35;;;;;;;5.37;3.87;;;;;;;;;;4971805;28;20214;-78
2024/01/16 10:25:11;;;;;;;7.67;3.77;;;;;;;;;;4971394;28;20665;-78
2024/01/16 10:27:38;;;;;;;5.67;3.53;;;;;;;;;;4967392;28;20225;-78
2024/01/16 10:30:04;;;;;;;8.03;4.20;;;;;;;;;;4953535;28;20597;-79
2024/01/16 10:32:34;;;;;;;6.57;4.10;;;;;;;;;;4941070;28;20230;-79
2024/01/16 10:35:04;;;;;;;7.70;3.77;;;;;;;;;;4971118;28;20416;-77
2024/01/16 10:37:52;;;;;;;7.33;4.87;;;;;;;;;;4951688;28;20226;-77
2024/01/16 10:40:25;;;;;;;7.17;3.97;;;;;;;;;;4952394;28;20228;-78
2024/01/16 10:42:58;;;;;;;7.63;4.63;;;;;;;;;;4956228;28;20905;-77
2024/01/16 10:45:26;;;;;;;8.07;4.63;;;;;;;;;;4966644;28;20866;-76
2024/01/16 10:48:04;;;;;;;9.50;4.30;;;;;;;;;;4944320;28;20237;-76
2024/01/16 10:50:30;;;;;;;5.40;3.47;;;;;;;;;;4970799;28;20240;-77
2024/01/16 10:53:03;;;;;;;9.53;6.50;;;;;;;;;;4952001;28;20234;-77
2024/01/16 10:55:32;;;;;;;8.33;6.53;;;;;;;;;;4949583;28;20589;-77
2024/01/16 10:58:00;;;;;;;7.13;4.73;;;;;;;;;;4968331;28;20250;-78
2024/01/16 11:00:28;;;;;;;11.67;5.03;;;;;;;;;;4952475;28;20276;-78
2024/01/16 11:03:04;;;;;;;7.17;3.93;;;;;;;;;;4952644;28;20379;-78
2024/01/16 11:05:32;;;;;;;6.97;4.23;;;;;;;;;;4945778;28;20225;-78
2024/01/16 11:07:58;;;;;;;5.90;4.30;;;;;;;;;;4957885;28;20261;-78
2024/01/16 11:10:24;;;;;;;10.50;9.30;;;;;;;;;;4969073;28;20853;-78
2024/01/16 11:12:52;;;;;;;8.93;5.37;;;;;;;;;;4967966;28;20234;-78
2024/01/16 11:15:20;;;;;;;10.43;6.80;;;;;;;;;;4955015;28;20675;-78
2024/01/16 11:17:46;;;;;;;9.83;5.77;;;;;;;;;;4973207;28;20229;-78
2024/01/16 11:20:13;;;;;;;8.00;4.80;;;;;;;;;;4954115;28;20218;-77
2024/01/16 11:22:42;;;;;;;15.80;7.90;;;;;;;;;;4964899;28;20222;-76
2024/01/16 11:25:16;;;;;;;9.77;5.23;;;;;;;;;;4941642;28;20237;-76
2024/01/16 11:27:43;;;;;;;9.00;6.03;;;;;;;;;;4953480;28;20233;-77
2024/01/16 11:30:10;;;;;;;6.83;3.83;;;;;;;;;;4948327;28;20241;-77
2024/01/16 11:32:37;;;;;;;6.47;4.33;;;;;;;;;;4925721;28;20238;-78
2024/01/16 11:35:06;;;;;;;7.27;4.80;;;;;;;;;;4969157;28;20222;-77
2024/01/16 11:37:32;;;;;;;5.53;4.20;;;;;;;;;;4947022;28;20685;-76
2024/01/16 11:40:17;;;;;;;7.83;4.50;;;;;;;;;;4935779;28;20226;-77
2024/01/16 11:42:43;;;;;;;12.37;3.63;;;;;;;;;;4971193;28;20241;-79
2024/01/16 11:45:29;;;;;;;8.13;4.97;;;;;;;;;;4952489;28;20277;-77
2024/01/16 11:48:11;;;;;;;8.13;4.63;;;;;;;;;;4935310;28;20234;-77
2024/01/16 11:50:39;;;;;;;6.30;4.20;;;;;;;;;;4981201;28;20264;-77
2024/01/16 11:53:12;;;;;;;4.87;3.93;;;;;;;;;;4952137;28;20714;-76
2024/01/16 11:55:53;;;;;;;6.20;4.80;;;;;;;;;;4952776;28;20300;-78
2024/01/16 11:58:45;;;;;;;11.27;5.83;;;;;;;;;;4971204;28;20250;-77
2024/01/16 12:01:11;;;;;;;8.43;4.30;;;;;;;;;;4956616;28;20257;-76
2024/01/16 12:03:37;;;;;;;12.90;4.80;;;;;;;;;;4946442;28;20252;-77
2024/01/16 12:06:06;;;;;;;7.00;4.87;;;;;;;;;;4948418;28;20230;-77
2024/01/16 12:08:34;;;;;;;9.67;5.57;;;;;;;;;;4969544;28;20230;-79
2024/01/16 12:11:01;;;;;;;7.27;5.30;;;;;;;;;;4968108;28;20224;-78
2024/01/16 12:13:27;;;;;;;8.03;4.93;;;;;;;;;;4930279;28;20616;-77
2024/01/16 12:16:04;;;;;;;6.70;4.37;;;;;;;;;;4972027;28;20321;-77
2024/01/16 12:18:29;;;;;;;6.63;5.27;;;;;;;;;;4953507;28;20237;-78
2024/01/16 12:20:55;;;;;;;6.67;4.13;;;;;;;;;;4952577;28;20226;-77
2024/01/16 12:23:23;;;;;;;9.97;5.23;;;;;;;;;;4968288;28;20229;-76
2024/01/16 12:25:54;;;;;;;4.63;3.97;;;;;;;;;;4938732;28;20226;-77
2024/01/16 12:28:27;;;;;;;6.87;4.47;;;;;;;;;;4946506;28;20240;-77
2024/01/16 12:30:53;;;;;;;5.67;4.80;;;;;;;;;;4963466;28;20230;-77
2024/01/16 12:33:24;;;;;;;7.33;4.80;;;;;;;;;;4950419;28;20229;-76
2024/01/16 12:36:05;;;;;;;10.33;5.27;;;;;;;;;;4973186;28;20226;-77
2024/01/16 12:38:35;;;;;;;6.37;4.90;;;;;;;;;;4956782;28;20285;-76
2024/01/16 12:41:05;;;;;;;9.43;7.03;;;;;;;;;;4954112;28;20226;-77
2024/01/16 12:43:34;;;;;;;11.97;8.20;;;;;;;;;;4938246;28;20236;-77
2024/01/16 12:46:01;;;;;;;10.57;6.00;;;;;;;;;;4954881;28;20233;-77
2024/01/16 12:48:27;;;;;;;6.87;5.30;;;;;;;;;;4956041;28;20230;-77
2024/01/16 12:51:02;;;;;;;7.97;6.43;;;;;;;;;;4970789;28;20226;-76
2024/01/16 12:53:28;;;;;;;10.70;5.67;;;;;;;;;;4929323;28;20300;-77
2024/01/16 12:56:03;;;;;;;6.80;5.60;;;;;;;;;;4950397;28;20276;-77
2024/01/16 12:58:37;;;;;;;6.47;5.83;;;;;;;;;;4971997;28;20225;-77
2024/01/16 13:01:21;;;;;;;9.83;4.80;;;;;;;;;;4971638;28;20353;-75
2024/01/16 13:03:47;;;;;;;8.57;5.70;;;;;;;;;;4985013;28;20308;-77
2024/01/16 13:06:22;;;;;;;8.53;5.60;;;;;;;;;;4943881;28;20218;-77
2024/01/16 13:08:48;;;;;;;7.00;4.93;;;;;;;;;;4969291;28;20349;-77
2024/01/16 13:11:19;;;;;;;8.20;6.13;;;;;;;;;;4968374;28;20280;-77
2024/01/16 13:13:48;;;;;;;13.97;6.73;;;;;;;;;;4954607;28;20265;-77
2024/01/16 13:16:16;;;;;;;6.23;5.60;;;;;;;;;;4968390;28;20220;-76
2024/01/16 13:18:41;;;;;;;8.40;6.57;;;;;;;;;;4969291;28;20615;-80
2024/01/16 13:21:07;;;;;;;7.13;6.03;;;;;;;;;;4967796;28;20225;-77
2024/01/16 13:23:37;;;;;;;15.40;5.90;;;;;;;;;;4984640;28;20696;-77
2024/01/16 13:26:04;;;;;;;6.07;5.47;;;;;;;;;;4952448;28;20286;-77
2024/01/16 13:28:30;;;;;;;7.50;5.50;;;;;;;;;;4976100;28;20241;-77
2024/01/16 13:30:58;;;;;;;5.30;4.80;;;;;;;;;;4969096;28;20280;-76
2024/01/16 13:33:26;;;;;;;5.33;4.80;;;;;;;;;;4931230;28;20234;-77
2024/01/16 13:35:54;;;;;;;9.60;5.57;;;;;;;;;;4970817;28;20218;-77
2024/01/16 13:38:23;;;;;;;10.43;5.57;;;;;;;;;;4971143;28;20230;-77
2024/01/16 13:40:53;;;;;;;9.10;6.23;;;;;;;;;;4971496;28;20585;-77
2024/01/16 13:43:19;;;;;;;9.00;5.87;;;;;;;;;;4944681;28;20281;-76
2024/01/16 13:45:49;;;;;;;14.90;8.30;;;;;;;;;;4970354;28;20707;-78
2024/01/16 13:48:15;;;;;;;12.63;8.83;;;;;;;;;;4965804;28;20336;-77
2024/01/16 13:50:40;;;;;;;10.43;9.00;;;;;;;;;;4954169;28;20313;-77
2024/01/16 13:53:07;;;;;;;10.07;6.17;;;;;;;;;;4970954;28;20230;-77
2024/01/16 13:55:34;;;;;;;7.60;6.10;;;;;;;;;;4970956;28;20222;-78
2024/01/16 13:58:00;;;;;;;12.03;9.37;;;;;;;;;;4975458;28;20308;-77
2024/01/16 14:00:26;;;;;;;16.17;8.53;;;;;;;;;;4966040;28;20233;-76
2024/01/16 14:02:54;;;;;;;10.50;6.30;;;;;;;;;;4966123;28;20243;-77
2024/01/16 14:05:20;;;;;;;9.83;6.60;;;;;;;;;;4968220;28;20226;-77
2024/01/16 14:07:50;;;;;;;9.87;6.10;;;;;;;;;;4952023;28;20390;-77
2024/01/16 14:10:16;;;;;;;7.87;6.93;;;;;;;;;;4937799;28;20237;-77
2024/01/16 14:12:45;;;;;;;7.77;6.10;;;;;;;;;;4964067;28;20745;-77
2024/01/16 14:15:22;;;;;;;9.37;6.17;;;;;;;;;;4989865;28;20637;-77
2024/01/16 14:17:51;;;;;;;12.43;7.80;;;;;;;;;;4973845;28;20226;-78
2024/01/16 14:20:23;;;;;;;10.23;8.33;;;;;;;;;;4973275;28;20228;-77
2024/01/16 14:22:58;;;;;;;9.53;6.73;;;;;;;;;;4959765;28;20292;-77
2024/01/16 14:25:24;;;;;;;13.67;7.70;;;;;;;;;;4958355;28;20305;-77
2024/01/16 14:28:00;;;;;;;13.33;9.23;;;;;;;;;;4960924;28;20222;-77
2024/01/16 14:30:29;;;;;;;10.23;8.03;;;;;;;;;;4986760;28;20237;-77
2024/01/16 14:32:57;;;;;;;9.20;7.03;;;;;;;;;;4956875;28;20249;-76
2024/01/16 14:35:23;;;;;;;9.03;8.07;;;;;;;;;;4970925;28;20579;-78
2024/01/16 14:37:49;;;;;;;7.57;6.83;;;;;;;;;;4988588;28;20222;-76
2024/01/16 14:40:20;;;;;;;7.40;6.60;;;;;;;;;;4932670;28;20226;-77
2024/01/16 14:42:51;;;;;;;8.80;7.17;;;;;;;;;;4973515;28;20277;-77
2024/01/16 14:45:17;;;;;;;7.53;6.73;;;;;;;;;;4965901;28;20318;-78
2024/01/16 14:47:45;;;;;;;9.70;7.03;;;;;;;;;;4985508;28;20226;-77
2024/01/16 14:50:10;;;;;;;6.83;6.10;;;;;;;;;;4965698;28;20226;-77